createdAt,value
2017-10-29T00:02:13.784Z,1.50
2017-10-29T00:04:41.227Z,0.50
2017-10-29T00:07:08.682Z,0.73
2017-10-29T00:09:36.163Z,0.60
2017-10-29T00:12:03.731Z,0.70
2017-10-29T00:14:31.175Z,2.17
2017-10-29T00:16:58.642Z,0.87
2017-10-29T00:19:26.083Z,5.33
2017-10-29T00:21:53.566Z,0.83
2017-10-29T00:24:21.126Z,0.70
2017-10-29T00:26:48.570Z,0.60
2017-10-29T00:29:16.026Z,0.70
2017-10-29T00:31:49.484Z,1.33
2017-10-29T00:34:16.957Z,0.90
2017-10-29T00:36:44.404Z,0.60
2017-10-29T00:39:11.893Z,0.70
2017-10-29T00:41:39.339Z,0.70
2017-10-29T00:44:06.909Z,1.67
2017-10-29T00:46:34.353Z,1.07
2017-10-29T00:49:01.833Z,1.30
2017-10-29T00:51:29.280Z,0.63
2017-10-29T00:53:56.724Z,2.03
2017-10-29T00:56:24.294Z,0.80
2017-10-29T00:58:51.735Z,0.87
2017-10-29T01:01:19.190Z,2.27
2017-10-29T01:03:46.617Z,0.93
2017-10-29T01:06:14.067Z,0.80
2017-10-29T01:08:41.513Z,0.80
2017-10-29T01:11:09.028Z,0.80
2017-10-29T01:13:36.483Z,1.93
2017-10-29T01:16:03.950Z,1.17
2017-10-29T01:18:31.387Z,2.30
2017-10-29T01:20:58.843Z,1.80
2017-10-29T01:23:26.283Z,0.97
2017-10-29T01:25:53.772Z,2.23
2017-10-29T01:28:21.293Z,0.80
2017-10-29T01:30:48.770Z,0.90
2017-10-29T01:33:16.340Z,1.30
2017-10-29T01:35:43.800Z,0.80
2017-10-29T01:38:11.371Z,0.93
2017-10-29T01:40:38.818Z,6.20
2017-10-29T01:43:06.284Z,3.07
2017-10-29T01:45:33.744Z,0.80
2017-10-29T01:48:01.292Z,1.00
2017-10-29T01:50:28.861Z,2.10
2017-10-29T01:52:56.353Z,1.33
2017-10-29T01:55:23.907Z,2.47
2017-10-29T01:57:51.377Z,2.00
2017-10-29T02:00:18.843Z,0.87
2017-10-29T02:02:46.337Z,0.70
2017-10-29T02:05:13.828Z,0.97
2017-10-29T02:07:41.351Z,0.80
2017-10-29T02:10:08.835Z,0.80
2017-10-29T02:12:36.380Z,0.73
2017-10-29T02:15:03.852Z,1.07
2017-10-29T02:17:31.295Z,1.07
2017-10-29T02:19:58.792Z,0.70
2017-10-29T02:22:26.236Z,1.10
2017-10-29T02:24:53.679Z,2.00
2017-10-29T02:27:21.216Z,0.70
2017-10-29T02:29:48.661Z,2.60
2017-10-29T02:32:16.138Z,0.80
2017-10-29T02:34:43.579Z,2.67
2017-10-29T02:37:11.047Z,1.87
2017-10-29T02:39:38.497Z,1.10
2017-10-29T02:42:05.979Z,1.13
2017-10-29T02:44:33.428Z,0.70
2017-10-29T02:47:00.946Z,4.20
2017-10-29T02:49:28.426Z,1.40
2017-10-29T02:51:55.978Z,1.27
2017-10-29T02:54:23.430Z,7.17
2017-10-29T02:56:50.900Z,1.67
2017-10-29T02:59:18.358Z,1.37
2017-10-29T03:01:45.844Z,1.40
2017-10-29T03:04:13.292Z,1.27
2017-10-29T03:06:40.786Z,1.37
2017-10-29T03:09:08.248Z,0.80
2017-10-29T03:11:35.734Z,1.10
2017-10-29T03:14:03.199Z,1.07
2017-10-29T03:16:30.648Z,2.20
2017-10-29T03:18:58.180Z,1.67
2017-10-29T03:21:25.619Z,1.37
2017-10-29T03:23:53.126Z,1.50
2017-10-29T03:26:20.585Z,1.40
2017-10-29T03:28:48.051Z,2.00
2017-10-29T03:31:15.501Z,1.50
2017-10-29T03:33:42.991Z,1.27
2017-10-29T03:36:10.432Z,1.33
2017-10-29T03:38:37.923Z,2.77
2017-10-29T03:41:05.386Z,1.23
2017-10-29T03:43:32.871Z,1.40
2017-10-29T03:46:00.351Z,1.10
2017-10-29T03:48:27.819Z,1.60
2017-10-29T03:50:55.294Z,1.43
2017-10-29T03:53:22.750Z,1.23
2017-10-29T03:55:50.220Z,2.80
2017-10-29T03:58:17.660Z,2.43
2017-10-29T04:00:45.164Z,5.33
2017-10-29T04:03:12.611Z,2.40
2017-10-29T04:05:40.183Z,2.00
2017-10-29T04:08:07.640Z,1.57
2017-10-29T04:10:35.219Z,2.10
2017-10-29T04:13:02.681Z,1.00
2017-10-29T04:15:30.220Z,1.30
2017-10-29T04:17:57.791Z,1.40
2017-10-29T04:20:25.276Z,1.83
2017-10-29T04:22:52.719Z,0.87
2017-10-29T04:25:20.179Z,1.00
2017-10-29T04:27:47.663Z,1.83
2017-10-29T04:30:15.189Z,1.00
2017-10-29T04:32:42.667Z,0.80
2017-10-29T04:35:10.121Z,1.40
2017-10-29T04:37:37.688Z,1.10
2017-10-29T04:40:05.208Z,1.67
2017-10-29T04:42:32.675Z,1.03
2017-10-29T04:45:00.131Z,1.60
2017-10-29T04:47:27.609Z,0.70
2017-10-29T04:49:55.077Z,0.60
2017-10-29T04:52:22.572Z,0.77
2017-10-29T04:54:50.029Z,4.40
2017-10-29T04:57:17.504Z,0.77
2017-10-29T04:59:44.953Z,1.00
2017-10-29T05:02:12.514Z,0.70
2017-10-29T05:04:39.975Z,0.77
2017-10-29T05:07:07.434Z,0.67
2017-10-29T05:09:34.931Z,1.10
2017-10-29T05:12:02.443Z,1.00
2017-10-29T05:14:29.950Z,1.13
2017-10-29T05:16:57.395Z,0.80
2017-10-29T05:19:24.914Z,0.83
2017-10-29T05:21:52.365Z,0.73
2017-10-29T05:24:19.832Z,2.00
2017-10-29T05:26:47.368Z,1.70
2017-10-29T05:29:14.945Z,1.00
2017-10-29T05:31:42.383Z,1.40
2017-10-29T05:34:09.954Z,1.10
2017-10-29T05:36:37.427Z,3.07
2017-10-29T05:39:04.863Z,0.70
2017-10-29T05:41:32.426Z,1.47
2017-10-29T05:43:59.894Z,0.70
2017-10-29T05:46:27.366Z,0.70
2017-10-29T05:48:54.844Z,2.10
2017-10-29T05:51:22.328Z,0.70
2017-10-29T05:53:49.780Z,2.03
2017-10-29T05:56:17.299Z,0.60
2017-10-29T05:58:44.830Z,2.30
2017-10-29T06:01:12.304Z,0.60
2017-10-29T06:03:39.842Z,0.60
2017-10-29T06:06:07.320Z,0.80
2017-10-29T06:08:34.768Z,0.83
2017-10-29T06:11:02.257Z,1.07
2017-10-29T06:13:29.722Z,1.87
2017-10-29T06:15:57.168Z,0.80
2017-10-29T06:18:24.683Z,0.70
2017-10-29T06:20:52.243Z,1.10
2017-10-29T06:23:19.805Z,0.93
2017-10-29T06:25:47.264Z,0.67
2017-10-29T06:28:14.732Z,0.70
2017-10-29T06:30:42.177Z,1.03
2017-10-29T06:33:09.721Z,2.67
2017-10-29T06:35:37.284Z,0.60
2017-10-29T06:38:04.748Z,1.27
2017-10-29T06:40:32.202Z,1.00
2017-10-29T06:42:59.754Z,0.60
2017-10-29T06:45:27.195Z,0.70
2017-10-29T06:47:54.638Z,0.60
2017-10-29T06:50:22.113Z,1.90
2017-10-29T06:52:49.575Z,0.70
2017-10-29T06:55:17.052Z,0.70
2017-10-29T06:57:44.606Z,0.60
2017-10-29T07:00:12.083Z,2.87
2017-10-29T07:02:39.535Z,0.83
2017-10-29T07:05:07.005Z,7.10
2017-10-29T07:07:34.515Z,1.43
2017-10-29T07:10:01.989Z,0.90
2017-10-29T07:12:29.449Z,1.23
2017-10-29T07:14:57.490Z,1.77
2017-10-29T07:17:24.957Z,1.47
2017-10-29T07:19:52.418Z,1.90
2017-10-29T07:22:19.990Z,3.30
2017-10-29T07:24:47.498Z,16.53
2017-10-29T07:27:15.686Z,2.37
2017-10-29T07:29:43.161Z,18.97
2017-10-29T07:32:10.631Z,5.43
2017-10-29T07:34:38.091Z,2.80
2017-10-29T07:37:05.569Z,5.67
2017-10-29T07:39:33.128Z,5.33
2017-10-29T07:42:00.664Z,6.00
2017-10-29T07:44:28.110Z,8.13
2017-10-29T07:46:55.678Z,8.07
2017-10-29T07:49:23.136Z,10.80
2017-10-29T07:51:50.694Z,12.60
2017-10-29T07:54:18.264Z,8.53
2017-10-29T07:56:45.806Z,9.67
2017-10-29T07:59:13.296Z,9.40
2017-10-29T08:01:41.177Z,15.13
2017-10-29T08:04:08.796Z,10.37
2017-10-29T08:06:36.252Z,15.77
2017-10-29T08:09:03.742Z,9.60
2017-10-29T08:11:31.193Z,19.90
2017-10-29T08:13:58.721Z,18.40
2017-10-29T08:16:26.180Z,13.87
2017-10-29T08:18:54.600Z,7.20
2017-10-29T08:21:22.093Z,7.97
2017-10-29T08:23:49.583Z,13.00
2017-10-29T08:26:17.049Z,5.63
2017-10-29T08:28:44.590Z,21.47
2017-10-29T08:31:12.063Z,10.33
2017-10-29T08:33:39.511Z,8.07
2017-10-29T08:36:06.983Z,16.70
2017-10-29T08:38:34.499Z,13.30
2017-10-29T08:41:01.980Z,11.40
2017-10-29T08:43:29.432Z,10.93
2017-10-29T08:45:56.908Z,15.03
2017-10-29T08:48:24.411Z,10.27
2017-10-29T08:50:51.996Z,17.80
2017-10-29T08:53:19.485Z,13.50
2017-10-29T08:55:47.014Z,30.70
2017-10-29T08:58:14.469Z,17.30
2017-10-29T09:00:41.942Z,4.17
2017-10-29T09:03:09.389Z,7.43
2017-10-29T09:05:36.865Z,11.53
2017-10-29T09:08:04.345Z,9.57
2017-10-29T09:10:31.835Z,11.87
2017-10-29T09:12:59.316Z,17.13
2017-10-29T09:15:26.783Z,12.00
2017-10-29T09:17:54.266Z,10.27
2017-10-29T09:20:21.744Z,8.83
2017-10-29T09:22:49.232Z,19.53
2017-10-29T09:25:16.679Z,5.07
2017-10-29T09:27:44.181Z,11.93
2017-10-29T09:30:11.709Z,14.77
2017-10-29T09:32:39.196Z,14.17
2017-10-29T09:35:06.730Z,7.37
2017-10-29T09:37:34.205Z,9.10
2017-10-29T09:40:01.676Z,11.77
2017-10-29T09:42:29.152Z,13.70
2017-10-29T09:44:56.613Z,14.77
2017-10-29T09:47:24.144Z,20.00
2017-10-29T09:49:51.668Z,9.37
2017-10-29T09:52:19.147Z,20.67
2017-10-29T09:54:46.695Z,10.77
2017-10-29T09:57:14.191Z,23.87
2017-10-29T09:59:41.647Z,15.30
2017-10-29T10:02:09.158Z,8.27
2017-10-29T10:04:36.730Z,22.63
2017-10-29T10:07:04.220Z,10.70
2017-10-29T10:09:31.692Z,13.27
2017-10-29T10:11:59.297Z,17.17
2017-10-29T10:14:26.848Z,20.17
2017-10-29T10:16:54.315Z,12.20
2017-10-29T10:19:21.792Z,15.13
2017-10-29T10:21:49.316Z,19.57
2017-10-29T10:24:16.802Z,16.93
2017-10-29T10:26:44.260Z,15.10
2017-10-29T10:29:11.739Z,10.40
2017-10-29T10:31:39.199Z,17.43
2017-10-29T10:34:06.684Z,19.47
2017-10-29T10:36:34.140Z,22.63
2017-10-29T10:39:01.668Z,15.77
2017-10-29T10:41:29.178Z,21.80
2017-10-29T10:43:56.646Z,11.10
2017-10-29T10:46:24.138Z,14.00
2017-10-29T10:48:51.599Z,17.03
2017-10-29T10:51:19.079Z,13.27
2017-10-29T10:53:46.557Z,37.30
2017-10-29T10:56:14.061Z,19.80
2017-10-29T10:58:41.511Z,20.83
2017-10-29T11:01:08.999Z,16.83
2017-10-29T11:03:36.451Z,16.07
2017-10-29T11:06:03.969Z,15.80
2017-10-29T11:08:31.430Z,7.70
2017-10-29T11:10:58.964Z,14.03
2017-10-29T11:13:26.416Z,15.93
2017-10-29T11:15:53.935Z,16.97
2017-10-29T11:18:21.446Z,13.27
2017-10-29T11:20:48.906Z,18.63
2017-10-29T11:23:16.379Z,12.17
2017-10-29T11:25:43.847Z,20.13
2017-10-29T11:28:11.380Z,12.80
2017-10-29T11:30:38.937Z,17.13
2017-10-29T11:33:06.407Z,13.37
2017-10-29T11:35:33.863Z,16.93
2017-10-29T11:38:01.369Z,22.13
2017-10-29T11:40:28.824Z,13.37
2017-10-29T11:42:56.303Z,17.80
2017-10-29T11:45:23.865Z,23.03
2017-10-29T11:47:51.373Z,14.30
2017-10-29T11:50:18.828Z,9.83
2017-10-29T11:52:46.345Z,25.97
2017-10-29T11:55:13.832Z,19.33
2017-10-29T11:57:41.296Z,10.97
2017-10-29T12:00:08.826Z,15.77
2017-10-29T12:02:36.364Z,12.53
2017-10-29T12:05:03.872Z,15.33
2017-10-29T12:07:31.327Z,15.20
2017-10-29T12:09:58.822Z,15.87
2017-10-29T12:12:26.280Z,11.00
2017-10-29T12:14:53.850Z,10.40
2017-10-29T12:17:21.306Z,17.60
2017-10-29T12:19:48.804Z,11.60
2017-10-29T12:22:16.256Z,13.03
2017-10-29T12:24:43.795Z,7.03
2017-10-29T12:27:11.295Z,9.40
2017-10-29T12:29:38.771Z,13.77
2017-10-29T12:32:06.258Z,17.00
2017-10-29T12:34:33.729Z,10.50
2017-10-29T12:37:01.210Z,7.00
2017-10-29T12:39:28.681Z,7.40
2017-10-29T12:41:56.196Z,13.53
2017-10-29T12:44:23.681Z,11.90
2017-10-29T12:46:51.193Z,6.37
2017-10-29T12:49:18.670Z,11.77
2017-10-29T12:51:46.213Z,15.97
2017-10-29T12:54:13.696Z,4.93
2017-10-29T12:56:41.198Z,11.97
2017-10-29T12:59:08.658Z,6.40
2017-10-29T13:01:36.151Z,8.17
2017-10-29T13:04:03.612Z,9.87
2017-10-29T13:06:31.101Z,9.50
2017-10-29T13:08:58.570Z,13.03
2017-10-29T13:11:26.049Z,8.87
2017-10-29T13:13:53.508Z,10.97
2017-10-29T13:16:20.981Z,8.10
2017-10-29T13:18:48.566Z,6.50
2017-10-29T13:21:16.122Z,8.70
2017-10-29T13:23:43.604Z,7.60
2017-10-29T13:26:11.077Z,7.00
2017-10-29T13:28:38.558Z,15.00
2017-10-29T13:31:06.011Z,13.63
2017-10-29T13:33:33.504Z,7.80
2017-10-29T13:36:01.057Z,12.63
2017-10-29T13:38:28.525Z,9.33
2017-10-29T13:40:55.991Z,9.80
2017-10-29T13:43:23.488Z,7.83
2017-10-29T13:45:50.943Z,13.80
2017-10-29T13:48:18.436Z,6.80
2017-10-29T13:50:45.893Z,8.83
2017-10-29T13:53:13.448Z,8.10
2017-10-29T13:55:40.911Z,5.10
2017-10-29T13:58:08.363Z,7.60
2017-10-29T14:00:35.844Z,11.43
2017-10-29T14:03:03.309Z,9.10
2017-10-29T14:05:30.785Z,13.07
2017-10-29T14:07:58.345Z,18.97
2017-10-29T14:10:25.844Z,10.53
2017-10-29T14:12:53.314Z,5.70
2017-10-29T14:15:21.628Z,7.17
2017-10-29T14:17:49.095Z,11.53
2017-10-29T14:20:16.563Z,4.27
2017-10-29T14:22:44.034Z,5.87
2017-10-29T14:25:11.560Z,8.43
2017-10-29T14:27:39.016Z,9.77
2017-10-29T14:30:06.541Z,8.20
2017-10-29T14:32:34.003Z,8.63
2017-10-29T14:35:01.536Z,11.70
2017-10-29T14:37:28.988Z,5.70
2017-10-29T14:39:56.476Z,9.53
2017-10-29T14:42:24.004Z,14.37
2017-10-29T14:44:51.552Z,3.70
2017-10-29T14:47:19.018Z,7.00
2017-10-29T14:49:46.488Z,3.00
2017-10-29T14:52:13.960Z,6.10
2017-10-29T14:54:41.439Z,2.80
2017-10-29T14:57:08.946Z,20.33
2017-10-29T14:59:36.456Z,9.53
2017-10-29T15:02:03.961Z,5.33
2017-10-29T15:04:31.532Z,8.00
2017-10-29T15:06:59.080Z,6.80
2017-10-29T15:09:26.641Z,10.40
2017-10-29T15:11:54.353Z,13.80
2017-10-29T15:14:21.843Z,2.43
2017-10-29T15:16:49.323Z,13.33
2017-10-29T15:19:16.883Z,19.50
2017-10-29T15:21:44.427Z,4.07
2017-10-29T15:24:11.900Z,5.90
2017-10-29T15:26:39.448Z,7.13
2017-10-29T15:29:06.964Z,1.50
2017-10-29T15:31:34.415Z,3.50
2017-10-29T15:34:01.896Z,2.50
2017-10-29T15:36:29.347Z,2.97
2017-10-29T15:38:56.869Z,4.40
2017-10-29T15:41:25.058Z,3.87
2017-10-29T15:43:53.046Z,4.30
2017-10-29T15:46:20.533Z,7.80
2017-10-29T15:48:48.041Z,10.00
2017-10-29T15:51:15.552Z,6.60
2017-10-29T15:53:43.107Z,6.27
2017-10-29T15:56:10.559Z,12.43
2017-10-29T15:58:38.093Z,4.50
2017-10-29T16:01:05.543Z,9.70
2017-10-29T16:03:33.456Z,6.57
2017-10-29T16:06:01.164Z,5.47
2017-10-29T16:08:28.906Z,8.77
2017-10-29T16:10:56.410Z,8.03
2017-10-29T16:13:23.889Z,6.83
2017-10-29T16:15:51.380Z,4.30
2017-10-29T16:18:18.897Z,6.13
2017-10-29T16:20:46.379Z,5.53
2017-10-29T16:23:13.833Z,4.33
2017-10-29T16:25:41.327Z,4.57
2017-10-29T16:28:09.267Z,8.43
2017-10-29T16:30:38.888Z,6.80
2017-10-29T16:33:08.932Z,3.70
2017-10-29T16:35:40.569Z,5.83
2017-10-29T16:38:13.718Z,5.13
2017-10-29T16:40:47.963Z,10.50
2017-10-29T16:43:20.028Z,5.37
2017-10-29T16:45:56.471Z,4.83
2017-10-29T16:48:24.112Z,5.83
2017-10-29T16:50:51.608Z,6.30
2017-10-29T16:53:19.182Z,5.80
2017-10-29T16:55:53.838Z,5.97
2017-10-29T16:58:21.431Z,12.10
2017-10-29T17:00:48.945Z,7.73
2017-10-29T17:03:16.434Z,4.90
2017-10-29T17:05:43.894Z,2.33
2017-10-29T17:08:11.398Z,6.93
2017-10-29T17:10:38.852Z,7.57
2017-10-29T17:13:06.373Z,6.60
2017-10-29T17:15:33.851Z,4.87
2017-10-29T17:18:01.327Z,2.30
2017-10-29T17:20:28.784Z,6.67
2017-10-29T17:22:56.262Z,8.93
2017-10-29T17:25:23.799Z,3.60
2017-10-29T17:27:51.275Z,14.83
2017-10-29T17:30:18.735Z,6.03
2017-10-29T17:32:46.230Z,3.20
2017-10-29T17:35:13.730Z,5.83
2017-10-29T17:37:41.240Z,6.40
2017-10-29T17:40:08.697Z,9.00
2017-10-29T17:42:36.171Z,8.50
2017-10-29T17:45:03.620Z,9.07
2017-10-29T17:47:31.087Z,11.40
2017-10-29T17:49:58.578Z,8.83
2017-10-29T17:52:26.033Z,15.70
2017-10-29T17:54:53.504Z,4.67
2017-10-29T17:57:20.943Z,14.63
2017-10-29T17:59:48.437Z,7.93
2017-10-29T18:02:15.910Z,11.53
2017-10-29T18:04:43.378Z,7.77
2017-10-29T18:07:10.833Z,14.37
2017-10-29T18:09:38.300Z,6.63
2017-10-29T18:12:05.756Z,5.93
2017-10-29T18:14:33.298Z,5.50
2017-10-29T18:17:00.739Z,7.97
2017-10-29T18:19:28.231Z,6.17
2017-10-29T18:21:55.680Z,9.67
2017-10-29T18:24:23.175Z,7.03
2017-10-29T18:26:50.634Z,7.30
2017-10-29T18:29:18.094Z,4.00
2017-10-29T18:31:45.576Z,4.90
2017-10-29T18:34:13.052Z,6.80
2017-10-29T18:36:40.521Z,13.03
2017-10-29T18:39:08.007Z,9.07
2017-10-29T18:41:35.487Z,3.23
2017-10-29T18:44:02.962Z,5.73
2017-10-29T18:46:30.432Z,8.07
2017-10-29T18:48:57.879Z,11.80
2017-10-29T18:51:25.355Z,6.10
2017-10-29T18:53:52.808Z,3.97
2017-10-29T18:56:20.336Z,17.13
2017-10-29T18:58:47.790Z,8.47
2017-10-29T19:01:15.367Z,6.33
2017-10-29T19:03:42.845Z,17.70
2017-10-29T19:06:10.350Z,14.13
2017-10-29T19:08:37.854Z,4.43
2017-10-29T19:11:05.359Z,4.87
2017-10-29T19:13:32.847Z,8.27
2017-10-29T19:16:00.348Z,8.43
2017-10-29T19:18:27.834Z,3.90
2017-10-29T19:20:55.303Z,12.40
2017-10-29T19:23:22.878Z,4.57
2017-10-29T19:25:50.435Z,8.77
2017-10-29T19:28:17.992Z,9.10
2017-10-29T19:30:45.558Z,7.73
2017-10-29T19:33:13.030Z,7.73
2017-10-29T19:35:40.484Z,4.87
2017-10-29T19:38:08.030Z,6.60
2017-10-29T19:40:35.589Z,4.50
2017-10-29T19:43:03.077Z,17.77
2017-10-29T19:45:30.535Z,5.93
2017-10-29T19:47:58.064Z,4.57
2017-10-29T19:50:25.508Z,7.07
2017-10-29T19:52:53.106Z,5.23
2017-10-29T19:55:20.644Z,4.73
2017-10-29T19:57:48.192Z,6.90
2017-10-29T20:00:15.640Z,3.17
2017-10-29T20:02:43.158Z,2.60
2017-10-29T20:05:10.633Z,11.13
2017-10-29T20:07:38.076Z,5.60
2017-10-29T20:10:05.597Z,6.67
2017-10-29T20:12:33.137Z,8.70
2017-10-29T20:15:00.645Z,7.43
2017-10-29T20:17:28.164Z,4.27
2017-10-29T20:19:55.644Z,11.00
2017-10-29T20:22:23.102Z,7.50
2017-10-29T20:24:50.624Z,5.17
2017-10-29T20:27:18.096Z,5.87
2017-10-29T20:29:45.578Z,4.10
2017-10-29T20:32:13.090Z,7.30
2017-10-29T20:34:40.581Z,8.87
2017-10-29T20:37:08.121Z,4.63
2017-10-29T20:39:35.582Z,10.53
2017-10-29T20:42:03.077Z,8.73
2017-10-29T20:44:30.590Z,3.53
2017-10-29T20:46:58.072Z,4.50
2017-10-29T20:49:25.526Z,3.17
2017-10-29T20:51:53.012Z,2.73
2017-10-29T20:54:20.460Z,5.13
2017-10-29T20:56:47.924Z,7.23
2017-10-29T20:59:15.384Z,10.07
2017-10-29T21:01:42.865Z,6.30
2017-10-29T21:04:10.317Z,10.57
2017-10-29T21:06:37.786Z,9.20
2017-10-29T21:09:05.228Z,10.27
2017-10-29T21:11:32.707Z,14.20
2017-10-29T21:14:00.157Z,15.63
2017-10-29T21:16:27.624Z,4.97
2017-10-29T21:18:55.079Z,12.00
2017-10-29T21:21:22.634Z,9.63
2017-10-29T21:23:50.080Z,8.47
2017-10-29T21:26:17.544Z,11.83
2017-10-29T21:28:45.033Z,8.47
2017-10-29T21:31:12.487Z,10.93
2017-10-29T21:33:39.971Z,16.83
2017-10-29T21:36:07.432Z,7.07
2017-10-29T21:38:34.895Z,7.03
2017-10-29T21:41:02.347Z,10.53
2017-10-29T21:43:29.828Z,10.30
2017-10-29T21:45:57.304Z,13.87
2017-10-29T21:48:24.790Z,15.07
2017-10-29T21:50:52.311Z,4.77
2017-10-29T21:53:19.784Z,9.37
2017-10-29T21:55:47.248Z,4.13
2017-10-29T21:58:14.720Z,13.80
2017-10-29T22:00:42.248Z,12.77
2017-10-29T22:03:09.739Z,16.90
2017-10-29T22:05:37.198Z,14.57
2017-10-29T22:08:04.665Z,5.63
2017-10-29T22:10:32.178Z,11.97
2017-10-29T22:12:59.671Z,13.37
2017-10-29T22:15:27.128Z,3.27
2017-10-29T22:17:54.605Z,10.63
2017-10-29T22:20:22.101Z,4.90
2017-10-29T22:22:49.611Z,20.70
2017-10-29T22:25:17.076Z,19.67
2017-10-29T22:27:44.542Z,15.23
2017-10-29T22:30:12.034Z,15.57
2017-10-29T22:32:39.488Z,15.07
2017-10-29T22:35:06.979Z,15.77
2017-10-29T22:37:34.512Z,10.13
2017-10-29T22:40:01.994Z,14.47
2017-10-29T22:42:29.530Z,12.70
2017-10-29T22:44:57.008Z,7.90
2017-10-29T22:47:24.527Z,10.03
2017-10-29T22:49:52.091Z,6.80
2017-10-29T22:52:19.562Z,12.90
2017-10-29T22:54:47.124Z,9.90
2017-10-29T22:57:14.676Z,25.57
2017-10-29T22:59:42.170Z,12.90
2017-10-29T23:02:09.685Z,11.70
2017-10-29T23:04:37.176Z,24.07
2017-10-29T23:10:05.542Z,12.10
2017-10-29T23:12:33.096Z,11.70
2017-10-29T23:15:00.555Z,16.73
2017-10-29T23:17:28.119Z,19.00
2017-10-29T23:19:55.667Z,16.20
2017-10-29T23:22:23.234Z,5.43
2017-10-29T23:24:50.683Z,5.70
2017-10-29T23:27:18.172Z,23.23
2017-10-29T23:29:45.634Z,36.20
2017-10-29T23:32:13.104Z,9.80
2017-10-29T23:34:40.580Z,20.63
2017-10-29T23:37:08.056Z,12.60
2017-10-29T23:39:35.530Z,13.80
2017-10-29T23:42:03.028Z,12.20
2017-10-29T23:44:30.574Z,7.20
2017-10-29T23:46:58.052Z,19.47
2017-10-29T23:49:25.607Z,10.13
2017-10-29T23:51:53.089Z,11.00
2017-10-29T23:54:20.557Z,18.30
2017-10-29T23:56:48.049Z,7.57
2017-10-29T23:59:15.587Z,12.33
